Time;durP1;ratioP1;P1;durP2;ratioP2;P2;SDS_P1;SDS_P2;PMS_P1;PMS_P2;Temp;Humidity;BMP_temperature;BMP_pressure;BME280_temperature;BME280_humidity;BME280_pressure;Samples;Min_cycle;Max_cycle;Signal;HPM_P1;HPM_P2
2020/12/18 00:01:29;;;;;;;22.27;16.23;;;7.00;99.90;;;;;;5076332;28;20263;-79
2020/12/18 00:03:56;;;;;;;19.13;15.93;;;6.90;99.90;;;;;;5075471;28;20247;-79
2020/12/18 00:06:24;;;;;;;19.15;14.70;;;6.90;99.90;;;;;;5075976;28;20203;-79
2020/12/18 00:08:52;;;;;;;23.55;15.60;;;6.80;99.90;;;;;;5075631;28;20226;-80
2020/12/18 00:11:22;;;;;;;19.88;14.35;;;6.90;99.90;;;;;;5075054;28;20206;-78
2020/12/18 00:13:52;;;;;;;17.27;13.77;;;6.90;99.90;;;;;;5074756;28;20215;-78
2020/12/18 00:16:19;;;;;;;22.02;16.63;;;6.90;99.90;;;;;;5072795;28;20271;-79
2020/12/18 00:18:45;;;;;;;106.22;76.75;;;6.90;99.90;;;;;;5069947;28;20262;-81
2020/12/18 00:21:16;;;;;;;20.17;15.27;;;6.80;99.90;;;;;;5070238;28;20270;-79
2020/12/18 00:23:42;;;;;;;20.48;16.42;;;6.80;99.90;;;;;;5072412;28;20294;-79
2020/12/18 00:26:09;;;;;;;19.45;15.52;;;6.70;99.90;;;;;;5068369;28;20266;-80
2020/12/18 00:28:36;;;;;;;17.45;15.25;;;6.70;99.90;;;;;;5062365;28;20199;-80
2020/12/18 00:31:02;;;;;;;21.88;15.93;;;6.70;99.90;;;;;;5062278;28;20683;-79
2020/12/18 00:33:28;;;;;;;21.55;15.95;;;6.80;99.90;;;;;;5060361;28;20313;-80
2020/12/18 00:35:55;;;;;;;19.05;14.50;;;6.80;99.90;;;;;;5062259;28;20258;-81
2020/12/18 00:38:22;;;;;;;23.83;15.80;;;6.70;99.90;;;;;;5073049;22;20384;-81
2020/12/18 00:40:48;;;;;;;19.95;15.20;;;6.60;99.90;;;;;;5057351;28;20209;-81
2020/12/18 00:43:15;;;;;;;24.92;16.20;;;6.50;99.90;;;;;;5057330;28;20238;-81
2020/12/18 00:45:43;;;;;;;21.50;16.15;;;6.50;99.90;;;;;;5057223;28;20207;-81
2020/12/18 00:48:10;;;;;;;21.02;15.65;;;6.40;99.90;;;;;;5057554;28;20321;-81
2020/12/18 00:50:36;;;;;;;25.60;17.75;;;6.40;99.90;;;;;;5056602;28;20282;-81
2020/12/18 00:53:04;;;;;;;23.95;17.02;;;6.40;99.90;;;;;;5057661;28;20193;-81
2020/12/18 00:55:30;;;;;;;22.73;16.85;;;6.40;99.90;;;;;;5059011;28;20210;-80
2020/12/18 00:57:56;;;;;;;20.65;16.40;;;6.30;99.90;;;;;;5058361;28;20299;-81
2020/12/18 01:00:23;;;;;;;20.98;16.10;;;6.30;99.90;;;;;;5059988;28;20321;-80
2020/12/18 01:02:50;;;;;;;22.33;15.88;;;6.30;99.90;;;;;;5059497;28;20219;-81
2020/12/18 01:05:16;;;;;;;22.27;15.85;;;6.30;99.90;;;;;;5059660;28;20225;-80
2020/12/18 01:07:42;;;;;;;23.83;16.88;;;6.30;99.90;;;;;;5057090;28;20227;-81
2020/12/18 01:10:10;;;;;;;23.75;16.58;;;6.30;99.90;;;;;;5056178;28;20207;-81
2020/12/18 01:12:36;;;;;;;24.85;16.48;;;6.30;99.90;;;;;;5056625;28;20205;-81
2020/12/18 01:15:03;;;;;;;23.55;16.00;;;6.30;99.90;;;;;;5056808;28;20329;-81
2020/12/18 01:17:30;;;;;;;23.60;17.42;;;6.30;99.90;;;;;;5055754;28;20227;-81
2020/12/18 01:19:57;;;;;;;22.45;16.75;;;6.40;99.90;;;;;;5056107;28;20206;-81
2020/12/18 01:22:23;;;;;;;22.33;17.00;;;6.40;99.90;;;;;;5056161;28;20295;-81
2020/12/18 01:24:49;;;;;;;19.55;15.60;;;6.50;99.90;;;;;;5056240;28;20683;-81
2020/12/18 01:27:16;;;;;;;24.90;16.42;;;6.40;99.90;;;;;;5056805;28;20222;-82
2020/12/18 01:29:42;;;;;;;21.88;15.73;;;6.50;99.90;;;;;;5057132;28;20199;-83
2020/12/18 01:32:08;;;;;;;19.38;16.17;;;6.50;99.90;;;;;;5057457;28;20198;-81
2020/12/18 01:34:35;;;;;;;22.48;15.55;;;6.50;99.90;;;;;;5056278;28;20203;-83
2020/12/18 01:37:02;;;;;;;21.02;15.75;;;6.50;99.90;;;;;;5057045;28;20235;-81
2020/12/18 01:39:28;;;;;;;19.75;15.38;;;6.50;99.90;;;;;;5056958;28;20218;-83
2020/12/18 01:41:54;;;;;;;20.98;15.40;;;6.60;99.90;;;;;;5057321;28;20321;-84
2020/12/18 01:44:20;;;;;;;20.88;15.48;;;6.60;99.90;;;;;;5057390;28;20218;-83
2020/12/18 01:46:47;;;;;;;22.90;15.15;;;6.60;99.90;;;;;;5057352;28;20207;-82
2020/12/18 01:49:14;;;;;;;26.73;16.83;;;6.60;99.90;;;;;;5057724;28;20293;-82
2020/12/18 01:51:41;;;;;;;26.27;17.15;;;6.60;99.90;;;;;;5060692;28;20271;-83
2020/12/18 01:54:07;;;;;;;25.27;18.27;;;6.60;99.90;;;;;;5075904;28;20207;-81
2020/12/18 01:56:34;;;;;;;21.25;15.20;;;6.60;99.90;;;;;;5054363;28;20231;-82
2020/12/18 01:59:01;;;;;;;18.73;16.30;;;6.60;99.90;;;;;;5076518;28;20199;-81
2020/12/18 02:01:27;;;;;;;23.73;16.75;;;6.60;99.90;;;;;;5076979;28;20242;-81
2020/12/18 02:03:54;;;;;;;23.00;16.50;;;6.60;99.90;;;;;;5077466;28;20298;-82
2020/12/18 02:06:21;;;;;;;26.90;16.95;;;6.60;99.90;;;;;;5075097;28;20203;-82
2020/12/18 02:08:50;;;;;;;24.42;18.85;;;6.60;99.90;;;;;;5075779;28;20214;-81
2020/12/18 02:11:20;;;;;;;23.30;16.13;;;6.50;99.90;;;;;;5074006;28;20237;-82
2020/12/18 02:13:47;;;;;;;23.95;16.92;;;6.50;99.90;;;;;;5075747;28;20182;-82
2020/12/18 02:16:13;;;;;;;24.08;16.15;;;6.50;99.90;;;;;;5074314;28;20651;-82
2020/12/18 02:18:40;;;;;;;24.88;18.10;;;6.50;99.90;;;;;;5069492;28;20310;-80
2020/12/18 02:21:06;;;;;;;21.52;16.10;;;6.50;99.90;;;;;;5065195;28;20369;-79
2020/12/18 02:23:33;;;;;;;24.50;16.05;;;6.50;99.90;;;;;;5064253;28;20227;-78
2020/12/18 02:26:05;;;;;;;24.20;17.10;;;6.40;99.90;;;;;;5065467;28;20203;-79
2020/12/18 02:28:31;;;;;;;21.80;16.60;;;6.40;99.90;;;;;;5063210;28;20766;-79
2020/12/18 02:30:57;;;;;;;27.65;17.33;;;6.40;99.90;;;;;;5060517;28;20207;-80
2020/12/18 02:33:24;;;;;;;23.65;17.98;;;6.30;99.90;;;;;;5056255;28;20207;-80
2020/12/18 02:35:50;;;;;;;22.15;16.85;;;6.30;99.90;;;;;;5060624;28;20210;-78
2020/12/18 02:38:16;;;;;;;24.65;17.25;;;6.20;99.90;;;;;;5065732;28;20321;-78
2020/12/18 02:40:43;;;;;;;22.30;16.60;;;6.20;99.90;;;;;;5056813;28;20581;-80
2020/12/18 02:43:10;;;;;;;20.90;15.98;;;6.20;99.90;;;;;;5054646;28;20703;-79
2020/12/18 02:45:36;;;;;;;22.08;16.83;;;6.10;99.90;;;;;;5054704;28;20270;-80
2020/12/18 02:48:02;;;;;;;25.67;17.83;;;6.10;99.90;;;;;;5054961;28;20223;-80
2020/12/18 02:50:29;;;;;;;26.20;18.38;;;6.00;99.90;;;;;;5054350;28;20213;-80
2020/12/18 02:52:55;;;;;;;23.45;16.63;;;6.00;99.90;;;;;;5054054;28;20195;-80
2020/12/18 02:55:21;;;;;;;26.70;19.13;;;6.00;99.90;;;;;;5053927;28;20229;-80
2020/12/18 02:57:48;;;;;;;25.08;17.40;;;6.00;99.90;;;;;;5057350;28;20230;-80
2020/12/18 03:00:15;;;;;;;23.90;17.30;;;6.00;99.90;;;;;;5058574;28;20199;-80
2020/12/18 03:02:41;;;;;;;28.48;20.42;;;6.00;99.90;;;;;;5058004;28;20729;-80
2020/12/18 03:05:08;;;;;;;24.40;17.63;;;6.00;99.90;;;;;;5058412;28;20240;-79
2020/12/18 03:07:34;;;;;;;21.40;16.65;;;6.10;99.90;;;;;;5058274;28;20223;-80
2020/12/18 03:10:00;;;;;;;24.63;18.38;;;6.00;99.90;;;;;;5057939;28;20207;-80
2020/12/18 03:12:27;;;;;;;24.63;17.50;;;6.10;99.90;;;;;;5057828;28;20298;-80
2020/12/18 03:14:53;;;;;;;23.20;16.40;;;6.00;99.90;;;;;;5057868;28;20203;-80
2020/12/18 03:17:20;;;;;;;24.45;16.95;;;6.10;99.90;;;;;;5058529;28;20223;-79
2020/12/18 03:19:46;;;;;;;24.13;16.33;;;6.10;99.90;;;;;;5065263;28;20275;-78
2020/12/18 03:22:12;;;;;;;26.27;17.85;;;6.10;99.90;;;;;;5069302;28;20215;-79
2020/12/18 03:24:39;;;;;;;26.92;17.02;;;6.00;99.90;;;;;;5058493;28;20203;-80
2020/12/18 03:27:05;;;;;;;24.90;17.00;;;6.00;99.90;;;;;;5057751;28;20227;-80
2020/12/18 03:29:31;;;;;;;26.20;17.05;;;5.90;99.90;;;;;;5057979;28;20203;-80
2020/12/18 03:31:57;;;;;;;23.08;16.83;;;6.00;99.90;;;;;;5057717;28;20256;-80
2020/12/18 03:34:25;;;;;;;23.48;16.75;;;5.90;99.90;;;;;;5058071;28;20203;-80
2020/12/18 03:36:51;;;;;;;31.58;19.38;;;5.90;99.90;;;;;;5063611;28;20214;-80
2020/12/18 03:39:17;;;;;;;25.40;17.92;;;5.90;99.90;;;;;;5078767;28;20199;-80
2020/12/18 03:41:43;;;;;;;25.85;17.33;;;5.90;99.90;;;;;;5078734;28;20209;-80
2020/12/18 03:44:10;;;;;;;26.25;18.52;;;5.80;99.90;;;;;;5079073;28;20270;-80
2020/12/18 03:46:36;;;;;;;23.50;17.35;;;5.80;99.90;;;;;;5079139;28;20226;-79
2020/12/18 03:49:02;;;;;;;26.88;18.08;;;5.80;99.90;;;;;;5067976;28;20635;-80
2020/12/18 03:51:29;;;;;;;24.35;18.85;;;5.70;99.90;;;;;;5059503;28;20203;-80
2020/12/18 03:53:56;;;;;;;24.90;18.65;;;5.70;99.90;;;;;;5058613;28;20275;-80
2020/12/18 03:56:22;;;;;;;26.95;18.00;;;5.70;99.90;;;;;;5059039;28;20225;-80
2020/12/18 03:58:48;;;;;;;25.48;17.15;;;5.60;99.90;;;;;;5058543;28;20223;-80
2020/12/18 04:01:14;;;;;;;25.52;17.38;;;5.70;99.90;;;;;;5058710;28;20574;-80
2020/12/18 04:03:41;;;;;;;31.63;19.83;;;5.60;99.90;;;;;;5058163;28;20273;-80
2020/12/18 04:06:07;;;;;;;24.13;17.65;;;5.70;99.90;;;;;;5058799;28;20207;-80
2020/12/18 04:08:34;;;;;;;29.13;18.02;;;5.70;99.90;;;;;;5057060;28;20231;-80
2020/12/18 04:11:00;;;;;;;24.30;17.23;;;5.70;99.90;;;;;;5058404;28;20203;-80
2020/12/18 04:13:27;;;;;;;27.75;17.95;;;5.70;99.90;;;;;;5058500;28;20229;-80
2020/12/18 04:15:53;;;;;;;26.88;19.25;;;5.70;99.90;;;;;;5058006;28;20568;-80
2020/12/18 04:18:19;;;;;;;23.67;17.80;;;5.70;99.90;;;;;;5063967;28;20294;-80
2020/12/18 04:20:45;;;;;;;21.65;17.50;;;5.70;99.90;;;;;;5067075;28;20206;-81
2020/12/18 04:23:13;;;;;;;26.67;18.60;;;5.70;99.90;;;;;;5060441;28;20229;-80
2020/12/18 04:25:40;;;;;;;26.70;18.83;;;5.70;99.90;;;;;;5059956;28;20305;-80
2020/12/18 04:28:06;;;;;;;30.35;18.58;;;5.80;99.90;;;;;;5060536;28;20290;-80
2020/12/18 04:30:32;;;;;;;28.70;18.63;;;5.70;99.90;;;;;;5060710;28;20266;-81
2020/12/18 04:32:59;;;;;;;26.00;17.50;;;5.70;99.90;;;;;;5060013;28;20203;-81
2020/12/18 04:35:26;;;;;;;22.27;17.27;;;5.70;99.90;;;;;;5059578;28;20210;-81
2020/12/18 04:37:52;;;;;;;25.40;18.20;;;5.60;99.90;;;;;;5058979;28;20235;-80
2020/12/18 04:40:18;;;;;;;30.13;19.42;;;5.70;99.90;;;;;;5060306;28;20294;-79
2020/12/18 04:42:46;;;;;;;25.17;19.08;;;5.70;99.90;;;;;;5057609;28;20329;-80
2020/12/18 04:45:12;;;;;;;24.77;18.10;;;5.70;99.90;;;;;;5058155;28;20209;-80
2020/12/18 04:47:41;;;;;;;25.48;17.35;;;5.70;99.90;;;;;;5057294;28;20223;-80
2020/12/18 04:50:08;;;;;;;24.98;17.00;;;5.60;99.90;;;;;;5056835;28;20199;-80
2020/12/18 04:52:37;;;;;;;25.23;18.33;;;5.60;99.90;;;;;;5056969;28;20230;-78
2020/12/18 04:55:03;;;;;;;24.02;17.27;;;5.60;99.90;;;;;;5057455;28;20203;-80
2020/12/18 04:57:30;;;;;;;29.42;18.25;;;5.60;99.90;;;;;;5057042;28;20313;-81
2020/12/18 04:59:59;;;;;;;34.33;18.95;;;5.60;99.90;;;;;;5057762;28;20199;-80
2020/12/18 05:02:25;;;;;;;27.92;19.00;;;5.50;99.90;;;;;;5057984;28;20219;-81
2020/12/18 05:04:53;;;;;;;31.92;18.30;;;5.50;99.90;;;;;;5057740;28;20486;-81
2020/12/18 05:07:19;;;;;;;25.92;18.90;;;5.50;99.90;;;;;;5057228;28;20322;-81
2020/12/18 05:09:51;;;;;;;27.92;18.63;;;5.60;99.90;;;;;;5056994;28;20660;-81
2020/12/18 05:12:17;;;;;;;29.50;20.48;;;5.60;99.90;;;;;;5056508;28;20186;-81
2020/12/18 05:14:44;;;;;;;28.77;20.95;;;5.50;99.90;;;;;;5056614;28;20199;-81
2020/12/18 05:17:12;;;;;;;27.92;19.52;;;5.60;99.90;;;;;;5056250;28;20226;-81
2020/12/18 05:19:39;;;;;;;29.08;18.05;;;5.50;99.90;;;;;;5055418;28;20396;-81
2020/12/18 05:22:08;;;;;;;31.10;21.98;;;5.50;99.90;;;;;;5055850;28;20227;-81
2020/12/18 05:24:35;;;;;;;26.10;19.83;;;5.50;99.90;;;;;;5056187;28;20207;-81
2020/12/18 05:27:01;;;;;;;29.58;20.15;;;5.40;99.90;;;;;;5055604;28;20226;-81
2020/12/18 05:29:28;;;;;;;31.75;23.10;;;5.50;99.90;;;;;;5054408;28;20439;-81
2020/12/18 05:31:55;;;;;;;29.00;21.35;;;5.50;99.90;;;;;;5055538;28;20210;-81
2020/12/18 05:34:23;;;;;;;30.02;20.52;;;5.50;99.90;;;;;;5055593;28;20206;-81
2020/12/18 05:36:49;;;;;;;27.85;21.27;;;5.50;99.90;;;;;;5055087;28;20207;-81
2020/12/18 05:39:16;;;;;;;28.58;20.60;;;5.40;99.90;;;;;;5054607;28;20572;-80
2020/12/18 05:41:44;;;;;;;28.67;21.40;;;5.30;99.90;;;;;;5054305;28;20206;-80
2020/12/18 05:44:11;;;;;;;31.90;22.05;;;5.40;99.90;;;;;;5054986;28;20561;-80
2020/12/18 05:46:39;;;;;;;29.35;20.52;;;5.40;99.90;;;;;;5053877;28;20245;-79
2020/12/18 05:49:07;;;;;;;34.83;22.63;;;5.40;99.90;;;;;;5053658;28;20447;-80
2020/12/18 05:51:37;;;;;;;29.70;21.25;;;5.50;99.90;;;;;;5054520;28;20202;-80
2020/12/18 05:54:14;;;;;;;29.45;20.58;;;5.50;99.90;;;;;;5055429;28;20199;-80
2020/12/18 05:56:42;;;;;;;33.10;20.55;;;5.50;99.90;;;;;;5054534;28;20190;-80
2020/12/18 05:59:10;;;;;;;30.85;20.30;;;5.50;99.90;;;;;;5054688;28;20203;-80
2020/12/18 06:01:41;;;;;;;29.52;19.17;;;5.50;99.90;;;;;;5054024;28;20214;-80
2020/12/18 06:04:13;;;;;;;27.38;19.88;;;5.50;99.90;;;;;;5057641;28;20264;-80
2020/12/18 06:06:49;;;;;;;27.88;20.85;;;5.40;99.90;;;;;;5058350;28;20217;-80
2020/12/18 06:09:17;;;;;;;26.75;19.38;;;5.30;99.90;;;;;;5057138;28;20209;-80
2020/12/18 06:11:43;;;;;;;28.75;19.02;;;5.40;99.90;;;;;;5056555;28;20634;-81
2020/12/18 06:14:13;;;;;;;28.58;20.02;;;5.30;99.90;;;;;;5056724;28;20202;-81
2020/12/18 06:16:44;;;;;;;27.35;19.23;;;5.30;99.90;;;;;;5056142;28;20236;-81
2020/12/18 06:19:12;;;;;;;30.40;21.25;;;5.30;99.90;;;;;;5055959;28;20210;-81
2020/12/18 06:21:39;;;;;;;29.83;21.27;;;5.40;99.90;;;;;;5056340;28;20476;-79
2020/12/18 06:24:08;;;;;;;25.35;19.63;;;5.50;99.90;;;;;;5066818;28;20793;-79
2020/12/18 06:26:35;;;;;;;26.85;19.08;;;5.40;99.90;;;;;;5062017;28;20268;-80
2020/12/18 06:29:03;;;;;;;29.75;21.20;;;5.30;99.90;;;;;;5055293;28;20782;-81
2020/12/18 06:31:31;;;;;;;29.63;21.95;;;5.30;99.90;;;;;;5055985;28;20673;-80
2020/12/18 06:33:58;;;;;;;29.63;18.92;;;5.30;99.90;;;;;;5059127;28;20206;-80
2020/12/18 06:36:57;;;;;;;27.20;19.80;;;5.20;99.90;;;;;;5059103;28;20198;-80
2020/12/18 06:39:26;;;;;;;29.60;20.20;;;5.10;99.90;;;;;;5084538;22;20227;-80
2020/12/18 06:42:12;;;;;;;23.48;18.85;;;5.20;99.90;;;;;;5061274;28;20212;-80
2020/12/18 06:44:40;;;;;;;26.77;17.50;;;5.10;99.90;;;;;;5061860;28;20187;-79
2020/12/18 06:47:08;;;;;;;28.15;19.45;;;5.10;99.90;;;;;;5062715;28;20275;-81
2020/12/18 06:50:11;;;;;;;27.80;18.15;;;5.00;99.90;;;;;;5061929;28;20226;-80
2020/12/18 06:52:38;;;;;;;26.70;19.65;;;5.00;99.90;;;;;;5064019;28;20662;-81
2020/12/18 06:55:06;;;;;;;32.58;21.70;;;5.00;99.90;;;;;;5062621;28;20203;-80
2020/12/18 06:57:32;;;;;;;26.85;20.30;;;4.90;99.90;;;;;;5066680;28;20203;-80
2020/12/18 07:00:27;;;;;;;27.80;19.63;;;4.90;99.90;;;;;;5064726;28;20678;-80
2020/12/18 07:02:54;;;;;;;29.50;20.10;;;4.80;99.90;;;;;;5062639;28;20218;-80
2020/12/18 07:05:32;;;;;;;28.20;19.67;;;4.90;99.90;;;;;;5061567;28;20211;-80
2020/12/18 07:08:09;;;;;;;30.42;22.10;;;4.90;99.90;;;;;;5071208;28;20286;-80
2020/12/18 07:10:38;;;;;;;29.20;19.95;;;4.80;99.90;;;;;;5075567;28;20172;-78
2020/12/18 07:13:06;;;;;;;30.55;20.50;;;4.80;99.90;;;;;;5076373;28;20233;-79
2020/12/18 07:15:52;;;;;;;34.05;22.23;;;4.80;99.90;;;;;;5075456;28;20337;-79
2020/12/18 07:18:23;;;;;;;31.50;20.00;;;4.70;99.90;;;;;;5073901;28;20227;-79
2020/12/18 07:20:51;;;;;;;34.72;20.92;;;4.80;99.90;;;;;;5073548;28;20221;-79
2020/12/18 07:23:19;;;;;;;30.05;21.40;;;4.70;99.90;;;;;;5067038;28;20223;-79
2020/12/18 07:25:46;;;;;;;34.72;22.13;;;4.70;99.90;;;;;;5066015;28;20272;-79
2020/12/18 07:28:13;;;;;;;32.55;21.95;;;4.70;99.90;;;;;;5072443;28;20278;-78
2020/12/18 07:30:41;;;;;;;30.33;21.48;;;4.60;99.90;;;;;;5070508;28;20210;-80
2020/12/18 07:33:09;;;;;;;33.80;22.75;;;4.60;99.90;;;;;;5061252;28;20607;-79
2020/12/18 07:35:37;;;;;;;37.30;21.60;;;4.70;99.90;;;;;;5062257;28;20293;-79
2020/12/18 07:38:10;;;;;;;30.98;21.55;;;4.70;99.90;;;;;;5063350;28;20236;-79
2020/12/18 07:40:37;;;;;;;31.80;20.63;;;4.70;99.90;;;;;;5071623;28;20255;-79
2020/12/18 07:43:08;;;;;;;31.33;22.35;;;4.70;99.90;;;;;;5076697;28;20237;-79
2020/12/18 07:45:38;;;;;;;36.95;22.20;;;4.60;99.90;;;;;;5076158;28;20199;-79
2020/12/18 07:48:16;;;;;;;31.50;21.35;;;4.60;99.90;;;;;;5074979;28;20234;-80
2020/12/18 07:50:57;;;;;;;39.50;24.20;;;4.60;99.90;;;;;;5070088;28;20187;-79
2020/12/18 07:53:23;;;;;;;33.20;20.60;;;4.60;99.90;;;;;;5069248;28;20187;-80
2020/12/18 07:56:10;;;;;;;30.65;20.55;;;4.60;99.90;;;;;;5065008;28;20206;-79
2020/12/18 07:58:47;;;;;;;30.80;21.13;;;4.50;99.90;;;;;;5061795;28;20290;-79
2020/12/18 08:01:15;;;;;;;30.85;21.23;;;4.60;99.90;;;;;;5060755;28;20218;-80
2020/12/18 08:03:50;;;;;;;30.45;20.90;;;4.60;99.90;;;;;;5060286;28;20691;-79
2020/12/18 08:06:19;;;;;;;29.63;20.30;;;4.60;99.90;;;;;;5061620;28;20217;-80
2020/12/18 08:08:50;;;;;;;34.97;23.08;;;4.70;99.90;;;;;;5064229;28;20227;-80
2020/12/18 08:11:21;;;;;;;33.90;21.38;;;4.80;99.90;;;;;;5066955;28;20203;-83
2020/12/18 08:13:49;;;;;;;35.80;23.20;;;4.80;99.90;;;;;;5071659;28;20193;-84
2020/12/18 08:16:18;;;;;;;36.10;22.63;;;4.70;99.90;;;;;;5074224;28;20207;-84
2020/12/18 08:18:51;;;;;;;31.13;20.48;;;4.60;99.90;;;;;;5073372;28;20225;-84
2020/12/18 08:21:21;;;;;;;41.25;22.05;;;4.70;99.90;;;;;;5073353;28;20217;-81
2020/12/18 08:23:52;;;;;;;30.45;22.45;;;4.70;99.90;;;;;;5077485;28;20210;-85
2020/12/18 08:26:20;;;;;;;33.72;22.60;;;4.70;99.90;;;;;;5076998;28;20210;-83
2020/12/18 08:28:46;;;;;;;33.05;21.20;;;4.80;99.90;;;;;;5073747;28;20230;-81
2020/12/18 08:31:15;;;;;;;30.77;21.25;;;4.80;99.90;;;;;;5067289;28;20259;-81
2020/12/18 08:33:49;;;;;;;29.50;20.98;;;4.80;99.90;;;;;;5068105;28;20577;-81
2020/12/18 08:36:16;;;;;;;33.15;22.05;;;4.80;99.90;;;;;;5065717;28;20281;-80
2020/12/18 08:38:58;;;;;;;34.47;21.52;;;4.80;99.90;;;;;;5065710;28;20327;-83
2020/12/18 08:41:25;;;;;;;32.38;19.83;;;4.70;99.90;;;;;;5059933;28;20187;-82
2020/12/18 08:44:04;;;;;;;33.80;21.35;;;4.80;99.90;;;;;;5064146;28;20244;-80
2020/12/18 08:46:34;;;;;;;32.20;21.30;;;4.70;99.90;;;;;;5060304;28;20190;-81
2020/12/18 08:49:00;;;;;;;34.78;21.20;;;4.80;99.90;;;;;;5058054;28;20579;-81
2020/12/18 08:51:28;;;;;;;27.60;21.00;;;4.80;99.90;;;;;;5061159;28;20209;-79
2020/12/18 08:53:55;;;;;;;26.58;19.33;;;4.80;99.90;;;;;;5060050;28;20333;-81
2020/12/18 08:56:21;;;;;;;33.53;20.77;;;4.80;99.90;;;;;;5059811;28;20210;-79
2020/12/18 08:58:47;;;;;;;30.35;21.50;;;4.80;99.90;;;;;;5059988;28;20237;-80
2020/12/18 09:01:24;;;;;;;31.63;20.77;;;4.90;99.90;;;;;;5060540;28;20679;-79
2020/12/18 09:03:51;;;;;;;28.25;21.05;;;4.90;99.90;;;;;;5060552;28;20222;-81
2020/12/18 09:06:18;;;;;;;31.05;21.05;;;4.90;99.90;;;;;;5059732;28;20561;-81
2020/12/18 09:08:44;;;;;;;32.25;21.30;;;5.00;99.90;;;;;;5059610;28;20265;-79
2020/12/18 09:11:11;;;;;;;32.95;20.05;;;5.00;99.90;;;;;;5058802;28;20207;-81
2020/12/18 09:13:38;;;;;;;31.63;20.20;;;5.00;99.90;;;;;;5059766;28;20609;-81
2020/12/18 09:16:07;;;;;;;26.42;19.55;;;5.10;99.90;;;;;;5060918;28;20245;-81
2020/12/18 09:18:34;;;;;;;29.80;20.73;;;5.30;99.90;;;;;;5060850;28;20226;-79
2020/12/18 09:21:13;;;;;;;28.27;18.70;;;5.30;99.90;;;;;;5061421;28;20285;-80
2020/12/18 09:23:40;;;;;;;25.77;19.50;;;5.40;99.90;;;;;;5060975;28;20219;-81
2020/12/18 09:26:06;;;;;;;29.30;20.50;;;5.50;99.90;;;;;;5060225;28;20208;-80
2020/12/18 09:28:37;;;;;;;25.00;18.70;;;5.50;99.90;;;;;;5059743;28;20715;-81
2020/12/18 09:31:06;;;;;;;31.48;20.60;;;5.50;99.90;;;;;;5059878;28;20207;-81
2020/12/18 09:33:35;;;;;;;23.77;18.70;;;5.50;99.90;;;;;;5061172;28;20203;-80
2020/12/18 09:36:10;;;;;;;26.38;16.48;;;5.60;99.90;;;;;;5060234;28;20210;-82
2020/12/18 09:38:39;;;;;;;25.27;17.02;;;5.80;99.90;;;;;;5059666;28;20652;-81
2020/12/18 09:41:08;;;;;;;26.60;19.17;;;5.80;99.90;;;;;;5062134;28;20260;-80
2020/12/18 09:43:35;;;;;;;25.58;17.17;;;5.90;99.90;;;;;;5060393;28;20219;-79
2020/12/18 09:46:01;;;;;;;22.75;17.58;;;5.90;99.90;;;;;;5060396;28;20293;-80
2020/12/18 09:48:28;;;;;;;26.95;19.90;;;5.90;99.90;;;;;;5059633;28;20227;-80
2020/12/18 09:50:56;;;;;;;22.02;16.98;;;6.00;99.90;;;;;;5060396;28;20202;-81
2020/12/18 09:53:23;;;;;;;23.70;16.65;;;6.10;99.90;;;;;;5062110;28;20255;-78
2020/12/18 09:55:50;;;;;;;23.25;18.15;;;6.20;99.90;;;;;;5063066;28;20222;-80
2020/12/18 09:58:17;;;;;;;28.48;19.17;;;6.30;99.90;;;;;;5061179;28;20223;-81
2020/12/18 10:00:43;;;;;;;26.15;17.75;;;6.30;99.90;;;;;;5072484;28;20211;-81
2020/12/18 10:03:10;;;;;;;27.08;18.65;;;6.30;99.90;;;;;;5070254;28;20215;-81
2020/12/18 10:05:37;;;;;;;34.40;24.13;;;6.30;99.90;;;;;;5060144;28;20209;-79
2020/12/18 10:08:03;;;;;;;32.70;26.10;;;6.30;99.90;;;;;;5059357;28;20227;-79
2020/12/18 10:10:30;;;;;;;28.67;22.25;;;6.30;99.90;;;;;;5061208;28;20203;-80
2020/12/18 10:12:57;;;;;;;26.90;18.10;;;6.30;99.90;;;;;;5062980;28;20202;-80
2020/12/18 10:15:24;;;;;;;26.55;19.63;;;6.40;99.90;;;;;;5063639;28;20271;-80
2020/12/18 10:17:51;;;;;;;31.27;21.20;;;6.40;99.90;;;;;;5064823;28;20223;-80
2020/12/18 10:20:17;;;;;;;58.13;34.25;;;6.30;99.90;;;;;;5065878;28;20232;-81
2020/12/18 10:22:44;;;;;;;37.75;24.20;;;6.40;99.90;;;;;;5068574;28;20210;-80
2020/12/18 10:25:10;;;;;;;27.70;20.13;;;6.50;99.90;;;;;;5070313;28;20213;-81
2020/12/18 10:27:39;;;;;;;26.08;18.27;;;6.60;99.90;;;;;;5070842;28;20244;-80
2020/12/18 10:30:07;;;;;;;22.52;17.60;;;6.60;99.90;;;;;;5069313;28;20203;-81
2020/12/18 10:32:34;;;;;;;23.23;16.10;;;6.70;99.90;;;;;;5061933;28;20203;-81
2020/12/18 10:35:00;;;;;;;25.85;17.95;;;6.60;99.90;;;;;;5062571;28;20215;-81
2020/12/18 10:37:27;;;;;;;21.27;15.75;;;6.50;99.90;;;;;;5063773;28;20209;-81
2020/12/18 10:39:53;;;;;;;26.20;16.08;;;6.50;99.90;;;;;;5063363;28;20191;-84
2020/12/18 10:42:20;;;;;;;21.85;16.58;;;6.60;99.90;;;;;;5065303;28;20249;-81
2020/12/18 10:44:48;;;;;;;34.45;19.10;;;6.60;99.90;;;;;;5063714;28;20761;-82
2020/12/18 10:47:15;;;;;;;24.65;17.83;;;6.70;99.90;;;;;;5063948;28;20217;-81
2020/12/18 10:49:42;;;;;;;25.85;15.50;;;6.80;99.90;;;;;;5062530;28;20698;-81
2020/12/18 10:52:08;;;;;;;23.17;15.70;;;6.80;99.90;;;;;;5064247;28;20294;-81
2020/12/18 10:54:35;;;;;;;21.00;15.60;;;6.90;99.90;;;;;;5064829;28;20210;-81
2020/12/18 10:57:01;;;;;;;25.10;15.60;;;6.90;99.90;;;;;;5069433;28;20263;-81
2020/12/18 10:59:29;;;;;;;21.55;15.73;;;7.00;99.90;;;;;;5073579;28;20310;-78
2020/12/18 11:01:57;;;;;;;20.17;16.35;;;7.00;99.90;;;;;;5074271;28;20175;-78
2020/12/18 11:04:24;;;;;;;16.83;15.05;;;7.10;99.90;;;;;;5067332;28;20226;-79
2020/12/18 11:06:51;;;;;;;19.30;14.35;;;7.10;99.90;;;;;;5069919;28;20233;-82
2020/12/18 11:09:17;;;;;;;22.30;15.10;;;7.20;99.90;;;;;;5064105;28;20291;-81
2020/12/18 11:11:44;;;;;;;17.17;14.05;;;7.20;99.90;;;;;;5063965;28;20203;-80
2020/12/18 11:14:11;;;;;;;17.60;13.80;;;7.20;99.90;;;;;;5063650;28;20199;-81
2020/12/18 11:16:38;;;;;;;19.83;14.38;;;7.30;99.90;;;;;;5063217;28;20297;-81
2020/12/18 11:19:04;;;;;;;24.27;14.38;;;7.40;99.90;;;;;;5067203;28;20227;-81
2020/12/18 11:21:32;;;;;;;20.05;14.65;;;7.40;99.90;;;;;;5066818;28;20213;-81
2020/12/18 11:23:58;;;;;;;19.88;15.07;;;7.40;99.90;;;;;;5067088;28;20309;-80
2020/12/18 11:26:25;;;;;;;25.70;15.27;;;7.40;99.90;;;;;;5069114;28;20235;-81
2020/12/18 11:28:51;;;;;;;22.40;13.25;;;7.50;99.90;;;;;;5067551;28;20227;-82
2020/12/18 11:31:18;;;;;;;18.67;14.25;;;7.50;99.90;;;;;;5067326;28;20310;-81
2020/12/18 11:33:45;;;;;;;21.38;13.32;;;7.60;99.90;;;;;;5067986;28;20235;-81
2020/12/18 11:36:11;;;;;;;20.23;16.20;;;7.70;99.90;;;;;;5066458;28;20203;-81
2020/12/18 11:38:38;;;;;;;19.65;15.98;;;7.70;99.90;;;;;;5066760;28;20227;-80
2020/12/18 11:41:05;;;;;;;23.48;14.20;;;7.70;99.90;;;;;;5066718;28;20203;-81
2020/12/18 11:43:31;;;;;;;22.25;15.73;;;7.70;99.90;;;;;;5066159;28;20223;-79
2020/12/18 11:45:59;;;;;;;18.40;13.90;;;7.70;99.90;;;;;;5066095;28;20206;-80
2020/12/18 11:48:26;;;;;;;20.10;14.23;;;7.70;99.90;;;;;;5075040;28;20223;-79
2020/12/18 11:50:52;;;;;;;16.95;13.75;;;7.70;99.90;;;;;;5076518;28;20203;-79
2020/12/18 11:53:19;;;;;;;15.82;13.27;;;7.70;99.90;;;;;;5076532;28;20199;-79
2020/12/18 11:55:46;;;;;;;17.15;13.43;;;7.70;99.90;;;;;;5077090;28;20214;-79
2020/12/18 11:58:12;;;;;;;17.30;12.43;;;7.80;99.90;;;;;;5077081;28;20255;-78
2020/12/18 12:00:38;;;;;;;20.13;14.68;;;7.80;99.90;;;;;;5075793;28;20231;-81
2020/12/18 12:03:05;;;;;;;22.65;14.55;;;7.80;99.90;;;;;;5072062;28;20221;-81
2020/12/18 12:05:33;;;;;;;16.23;12.65;;;7.70;99.90;;;;;;5070872;28;20289;-81
2020/12/18 12:07:59;;;;;;;19.95;14.13;;;7.80;99.90;;;;;;5068173;28;20227;-79
2020/12/18 12:10:25;;;;;;;20.10;12.90;;;7.90;99.90;;;;;;5069480;28;20295;-80
2020/12/18 12:12:52;;;;;;;14.50;13.00;;;7.80;99.90;;;;;;5064769;28;20331;-80
2020/12/18 12:15:19;;;;;;;20.75;14.27;;;7.80;99.90;;;;;;5061913;28;20285;-80
2020/12/18 12:17:45;;;;;;;16.95;13.73;;;7.80;99.90;;;;;;5064582;28;20223;-81
2020/12/18 12:20:12;;;;;;;19.73;14.55;;;7.90;99.90;;;;;;5065775;28;20199;-79
2020/12/18 12:22:38;;;;;;;19.83;15.85;;;7.90;99.90;;;;;;5067617;28;20289;-80
2020/12/18 12:25:05;;;;;;;23.10;13.30;;;8.00;99.90;;;;;;5064714;28;20223;-78
2020/12/18 12:27:31;;;;;;;21.42;14.15;;;8.00;99.90;;;;;;5065925;28;20213;-82
2020/12/18 12:29:58;;;;;;;26.55;12.18;;;8.10;99.90;;;;;;5063058;28;20290;-81
2020/12/18 12:32:25;;;;;;;17.77;13.02;;;8.10;99.90;;;;;;5065010;28;20303;-81
2020/12/18 12:34:51;;;;;;;15.27;12.27;;;8.10;99.90;;;;;;5064481;28;20245;-81
2020/12/18 12:37:18;;;;;;;17.15;12.15;;;8.10;99.90;;;;;;5064160;28;20199;-81
2020/12/18 12:39:48;;;;;;;18.70;12.93;;;8.10;99.90;;;;;;5098987;22;20238;-81